createdAt,value
2019-03-12T00:02:18.943Z,14.90
2019-03-12T00:04:55.362Z,14.90
2019-03-12T00:07:30.243Z,14.90
2019-03-12T00:10:19.597Z,14.90
2019-03-12T00:12:44.193Z,14.90
2019-03-12T00:15:17.893Z,14.90
2019-03-12T00:17:52.021Z,15.00
2019-03-12T00:20:24.338Z,14.90
2019-03-12T00:23:00.495Z,14.90
2019-03-12T00:25:34.362Z,14.80
2019-03-12T00:28:09.019Z,14.80
2019-03-12T00:30:42.556Z,14.80
2019-03-12T00:33:16.521Z,14.90
2019-03-12T00:35:51.266Z,14.80
2019-03-12T00:38:25.267Z,14.90
2019-03-12T00:40:58.836Z,14.90
2019-03-12T00:43:32.789Z,14.90
2019-03-12T00:46:06.507Z,14.90
2019-03-12T00:48:42.034Z,15.00
2019-03-12T00:51:15.622Z,14.90
2019-03-12T00:53:49.574Z,14.90
2019-03-12T00:56:23.267Z,14.90
2019-03-12T00:58:59.860Z,14.90
2019-03-12T01:01:34.152Z,14.90
2019-03-12T01:04:08.189Z,14.90
2019-03-12T01:06:41.757Z,14.80
2019-03-12T01:09:16.118Z,14.80
2019-03-12T01:11:49.903Z,14.80
2019-03-12T01:14:23.856Z,14.80
2019-03-12T01:16:58.325Z,14.70
2019-03-12T01:19:32.780Z,14.80
2019-03-12T01:22:06.982Z,14.90
2019-03-12T01:24:40.929Z,14.80
2019-03-12T01:27:14.615Z,14.80
2019-03-12T01:29:49.918Z,14.40
2019-03-12T01:32:23.471Z,13.80
2019-03-12T01:34:57.496Z,13.40
2019-03-12T01:37:31.227Z,13.10
2019-03-12T01:40:05.533Z,13.00
2019-03-12T01:42:39.329Z,12.90
2019-03-12T01:45:15.497Z,12.90
2019-03-12T01:47:49.315Z,13.00
2019-03-12T01:50:23.370Z,13.10
2019-03-12T01:52:57.129Z,13.00
2019-03-12T01:55:31.733Z,12.80
2019-03-12T01:58:05.255Z,12.70
2019-03-12T02:00:42.544Z,12.70
2019-03-12T02:03:16.126Z,12.80
2019-03-12T02:05:50.356Z,12.70
2019-03-12T02:08:24.047Z,12.60
2019-03-12T02:10:58.126Z,12.50
2019-03-12T02:13:31.893Z,12.50
2019-03-12T02:16:07.070Z,12.40
2019-03-12T02:18:41.057Z,12.50
2019-03-12T02:21:15.130Z,12.40
2019-03-12T02:23:49.022Z,12.30
2019-03-12T02:26:23.146Z,12.50
2019-03-12T02:28:57.096Z,12.50
2019-03-12T02:31:31.697Z,12.50
2019-03-12T02:34:05.768Z,12.50
2019-03-12T02:36:39.736Z,12.40
2019-03-12T02:39:14.562Z,12.30
2019-03-12T02:41:50.140Z,12.20
2019-03-12T02:44:24.334Z,12.10
2019-03-12T02:46:58.436Z,12.00
2019-03-12T02:49:32.301Z,12.00
2019-03-12T02:52:06.909Z,12.10
2019-03-12T02:54:40.562Z,12.10
2019-03-12T02:57:14.712Z,11.90
2019-03-12T02:59:48.632Z,11.90
2019-03-12T03:02:25.521Z,12.00
2019-03-12T03:04:59.100Z,12.30
2019-03-12T03:07:59.478Z,12.30
2019-03-12T03:10:33.107Z,12.20
2019-03-12T03:13:07.170Z,12.00
2019-03-12T03:15:43.047Z,12.00
2019-03-12T03:18:17.093Z,12.00
2019-03-12T03:20:51.068Z,12.00
2019-03-12T03:23:24.992Z,12.20
2019-03-12T03:25:58.992Z,12.30
2019-03-12T03:28:33.128Z,12.30
2019-03-12T03:31:07.040Z,12.30
2019-03-12T03:33:41.345Z,12.20
2019-03-12T03:36:15.035Z,12.10
2019-03-12T03:38:49.308Z,11.90
2019-03-12T03:41:23.364Z,11.60
2019-03-12T03:43:57.558Z,11.70
2019-03-12T03:46:31.217Z,11.60
2019-03-12T03:49:05.772Z,11.60
2019-03-12T03:51:39.475Z,11.40
2019-03-12T03:54:13.788Z,11.30
2019-03-12T03:56:47.446Z,11.30
2019-03-12T03:59:22.445Z,11.40
2019-03-12T04:01:56.070Z,11.40
2019-03-12T04:04:33.286Z,11.30
2019-03-12T04:07:07.045Z,11.20
2019-03-12T04:09:40.975Z,11.20
2019-03-12T04:12:14.730Z,11.30
2019-03-12T04:14:48.819Z,11.30
2019-03-12T04:17:22.863Z,11.30
2019-03-12T04:19:56.808Z,11.30
2019-03-12T04:22:30.689Z,11.20
2019-03-12T04:25:04.624Z,11.20
2019-03-12T04:27:38.333Z,11.20
2019-03-12T04:30:13.499Z,11.30
2019-03-12T04:32:47.385Z,11.30
2019-03-12T04:35:21.882Z,11.30
2019-03-12T04:37:56.149Z,11.20
2019-03-12T04:40:30.068Z,11.30
2019-03-12T04:43:03.754Z,11.30
2019-03-12T04:45:37.780Z,11.50
2019-03-12T04:48:11.470Z,11.40
2019-03-12T04:50:43.687Z,11.30
2019-03-12T04:53:17.517Z,11.30
2019-03-12T04:55:51.696Z,11.30
2019-03-12T04:58:25.426Z,11.20
2019-03-12T05:00:59.281Z,11.20
2019-03-12T05:03:32.808Z,11.30
2019-03-12T05:06:09.696Z,11.30
2019-03-12T05:08:44.237Z,11.40
2019-03-12T05:11:18.191Z,11.60
2019-03-12T05:14:40.259Z,11.50
2019-03-12T05:17:25.767Z,11.70
2019-03-12T05:19:59.400Z,11.80
2019-03-12T05:22:33.322Z,11.80
2019-03-12T05:25:07.728Z,11.60
2019-03-12T05:27:42.417Z,11.50
2019-03-12T05:30:26.081Z,11.50
2019-03-12T05:33:00.105Z,11.70
2019-03-12T05:35:33.856Z,11.80
2019-03-12T05:38:08.067Z,11.90
2019-03-12T05:40:42.077Z,11.80
2019-03-12T05:43:16.082Z,11.70
2019-03-12T05:45:50.126Z,11.70
2019-03-12T05:48:24.609Z,11.70
2019-03-12T05:50:58.238Z,11.80
2019-03-12T05:53:48.209Z,11.70
2019-03-12T05:56:23.301Z,11.80
2019-03-12T05:58:57.330Z,11.90
2019-03-12T06:01:31.396Z,11.90
2019-03-12T06:04:05.537Z,12.00
2019-03-12T06:06:42.544Z,11.90
2019-03-12T06:09:29.504Z,11.80
2019-03-12T06:11:52.270Z,11.90
2019-03-12T06:14:26.504Z,12.10
2019-03-12T06:17:00.494Z,12.10
2019-03-12T06:19:36.963Z,12.10
2019-03-12T06:22:11.903Z,12.00
2019-03-12T06:24:46.454Z,12.00
2019-03-12T06:27:20.508Z,12.20
2019-03-12T06:29:54.708Z,12.30
2019-03-12T06:32:40.812Z,12.50
2019-03-12T06:35:20.474Z,12.40
2019-03-12T06:38:07.364Z,12.30
2019-03-12T06:40:59.251Z,12.30
2019-03-12T06:43:59.744Z,12.30
2019-03-12T06:46:48.777Z,12.30
2019-03-12T06:49:39.183Z,12.30
2019-03-12T06:52:34.280Z,12.40
2019-03-12T06:55:34.258Z,12.40
2019-03-12T06:58:29.088Z,12.30
2019-03-12T07:01:15.201Z,12.30
2019-03-12T07:04:00.074Z,12.40
2019-03-12T07:06:56.946Z,12.30
2019-03-12T07:09:47.638Z,12.50
2019-03-12T07:12:57.565Z,12.70
2019-03-12T07:15:51.985Z,12.80
2019-03-12T07:19:04.911Z,12.80
2019-03-12T07:21:53.952Z,12.70
2019-03-12T07:24:50.240Z,12.90
2019-03-12T07:27:50.938Z,12.90
2019-03-12T07:30:58.892Z,12.90
2019-03-12T07:33:47.678Z,12.90
2019-03-12T07:36:39.253Z,12.80
2019-03-12T07:39:35.305Z,12.60
2019-03-12T07:42:48.327Z,12.50
2019-03-12T07:45:32.289Z,12.60
2019-03-12T07:48:16.406Z,12.50
2019-03-12T07:51:11.570Z,12.50
2019-03-12T07:53:59.409Z,12.50
2019-03-12T07:56:50.453Z,12.50
2019-03-12T07:59:44.762Z,12.30
2019-03-12T08:02:40.922Z,12.30
2019-03-12T08:05:28.152Z,12.10
2019-03-12T08:08:23.769Z,11.90
2019-03-12T08:11:17.865Z,11.80
2019-03-12T08:14:10.533Z,11.90
2019-03-12T08:17:15.885Z,12.00
2019-03-12T08:20:13.396Z,11.80
2019-03-12T08:23:14.384Z,11.60
2019-03-12T08:26:06.419Z,11.30
2019-03-12T08:28:50.168Z,11.30
2019-03-12T08:31:43.478Z,11.30
2019-03-12T08:34:38.364Z,11.20
2019-03-12T08:37:23.465Z,10.60
2019-03-12T08:40:12.240Z,10.30
2019-03-12T08:43:06.214Z,10.20
2019-03-12T08:46:00.192Z,10.00
2019-03-12T08:49:15.017Z,9.90
2019-03-12T08:52:12.782Z,9.90
2019-03-12T08:55:20.297Z,9.60
2019-03-12T08:58:27.437Z,9.80
2019-03-12T09:01:31.248Z,10.00
2019-03-12T09:04:25.333Z,10.30
2019-03-12T09:07:15.063Z,10.30
2019-03-12T09:10:15.363Z,10.60
2019-03-12T09:13:04.223Z,10.60
2019-03-12T09:16:02.635Z,10.70
2019-03-12T09:19:07.008Z,10.70
2019-03-12T09:21:54.731Z,10.70
2019-03-12T09:24:52.202Z,10.30
2019-03-12T09:27:49.157Z,10.40
2019-03-12T09:30:48.057Z,10.40
2019-03-12T09:33:59.953Z,10.50
2019-03-12T09:37:03.729Z,10.30
2019-03-12T09:39:57.682Z,10.30
2019-03-12T09:42:53.547Z,10.20
2019-03-12T09:45:46.502Z,10.20
2019-03-12T09:48:46.371Z,10.30
2019-03-12T09:51:25.190Z,9.80
2019-03-12T09:54:40.518Z,9.80
2019-03-12T09:57:46.391Z,9.70
2019-03-12T10:00:45.284Z,10.00
2019-03-12T10:03:47.858Z,10.00
2019-03-12T10:06:42.548Z,10.00
2019-03-12T10:09:36.254Z,9.70
2019-03-12T10:12:28.754Z,9.80
2019-03-12T10:15:21.210Z,9.90
2019-03-12T10:18:16.169Z,9.70
2019-03-12T10:21:04.958Z,9.70
2019-03-12T10:24:07.458Z,9.70
2019-03-12T10:27:03.147Z,9.80
2019-03-12T10:29:57.829Z,9.90
2019-03-12T10:32:59.482Z,10.10
2019-03-12T10:35:52.494Z,10.20
2019-03-12T10:39:10.965Z,10.20
2019-03-12T10:42:11.050Z,10.30
2019-03-12T10:44:58.211Z,10.40
2019-03-12T10:47:40.155Z,10.60
2019-03-12T10:50:14.249Z,10.60
2019-03-12T10:52:49.592Z,10.60
2019-03-12T10:55:25.391Z,10.50
2019-03-12T10:58:00.339Z,10.10
2019-03-12T11:00:37.208Z,9.90
2019-03-12T11:03:15.633Z,9.70
2019-03-12T11:05:51.538Z,9.80
2019-03-12T11:08:25.674Z,9.80
2019-03-12T11:11:02.480Z,9.80
2019-03-12T11:13:39.198Z,9.90
2019-03-12T11:16:14.033Z,10.00
2019-03-12T11:18:51.216Z,9.90
2019-03-12T11:21:25.082Z,9.90
2019-03-12T11:23:59.604Z,9.70
2019-03-12T11:26:35.784Z,9.70
2019-03-12T11:29:12.976Z,10.00
2019-03-12T11:31:49.969Z,10.00
2019-03-12T11:34:27.350Z,9.90
2019-03-12T11:37:14.610Z,10.00
2019-03-12T11:39:49.789Z,10.10
2019-03-12T11:42:24.449Z,10.10
2019-03-12T11:44:59.566Z,10.30
2019-03-12T11:47:34.569Z,10.40
2019-03-12T11:50:10.320Z,10.30
2019-03-12T11:52:54.698Z,10.30
2019-03-12T11:55:21.886Z,10.30
2019-03-12T11:58:00.724Z,10.20
2019-03-12T12:00:56.551Z,10.00
2019-03-12T12:03:34.342Z,9.90
2019-03-12T12:06:23.435Z,9.90
2019-03-12T12:08:59.676Z,10.10
2019-03-12T12:11:36.762Z,10.20
2019-03-12T12:14:10.601Z,10.20
2019-03-12T12:16:45.345Z,10.20
2019-03-12T12:19:20.699Z,10.40
2019-03-12T12:21:55.531Z,10.50
2019-03-12T12:24:30.845Z,10.50
2019-03-12T12:27:08.649Z,10.60
2019-03-12T12:29:44.089Z,10.60
2019-03-12T12:32:19.704Z,10.60
2019-03-12T12:34:55.496Z,10.60
2019-03-12T12:37:30.678Z,10.50
2019-03-12T12:40:06.812Z,10.40
2019-03-12T12:42:43.719Z,10.60
2019-03-12T12:45:19.401Z,10.60
2019-03-12T12:47:56.462Z,10.60
2019-03-12T12:51:02.343Z,10.70
2019-03-12T12:53:27.869Z,10.70
2019-03-12T12:56:09.702Z,10.60
2019-03-12T12:58:45.045Z,10.40
2019-03-12T13:01:22.409Z,10.30
2019-03-12T13:03:57.441Z,10.30
2019-03-12T13:06:31.079Z,10.00
2019-03-12T13:09:06.209Z,10.00
2019-03-12T13:11:45.325Z,9.80
2019-03-12T13:14:19.865Z,9.40
2019-03-12T13:16:56.596Z,9.10
2019-03-12T13:19:37.393Z,8.80
2019-03-12T13:22:13.566Z,8.80
2019-03-12T13:24:55.446Z,8.60
2019-03-12T13:27:41.284Z,8.60
2019-03-12T13:30:09.116Z,8.30
2019-03-12T13:32:43.276Z,8.40
2019-03-12T13:35:19.779Z,8.60
2019-03-12T13:37:54.611Z,8.50
2019-03-12T13:40:31.132Z,8.50
2019-03-12T13:43:06.653Z,8.60
2019-03-12T13:45:41.979Z,8.60
2019-03-12T13:48:29.705Z,8.60
2019-03-12T13:51:15.173Z,8.60
2019-03-12T13:53:49.660Z,8.50
2019-03-12T13:56:25.631Z,8.70
2019-03-12T13:59:01.248Z,8.80
2019-03-12T14:01:35.849Z,8.70
2019-03-12T14:04:11.082Z,8.70
2019-03-12T14:06:46.527Z,8.80
2019-03-12T14:09:20.422Z,8.70
2019-03-12T14:12:00.182Z,8.60
2019-03-12T14:14:37.354Z,8.70
2019-03-12T14:17:12.396Z,8.80
2019-03-12T14:19:48.273Z,8.80
2019-03-12T14:22:22.075Z,8.90
2019-03-12T14:24:57.248Z,9.10
2019-03-12T14:27:32.760Z,8.90
2019-03-12T14:30:06.216Z,8.90
2019-03-12T14:32:41.068Z,9.00
2019-03-12T14:35:18.257Z,9.10
2019-03-12T14:37:57.598Z,9.30
2019-03-12T14:40:31.703Z,9.20
2019-03-12T14:43:11.801Z,9.30
2019-03-12T14:45:53.528Z,9.30
2019-03-12T14:49:03.093Z,9.30
2019-03-12T14:52:08.579Z,9.00
2019-03-12T14:54:43.164Z,9.00
2019-03-12T14:57:17.525Z,9.00
2019-03-12T14:59:52.655Z,9.00
2019-03-12T15:02:32.030Z,8.80
2019-03-12T15:05:10.516Z,8.70
2019-03-12T15:07:45.107Z,8.60
2019-03-12T15:10:21.236Z,8.60
2019-03-12T15:12:58.061Z,8.60
2019-03-12T15:15:32.516Z,8.80
2019-03-12T15:18:06.780Z,8.80
2019-03-12T15:20:45.850Z,8.80
2019-03-12T15:23:24.631Z,8.80
2019-03-12T15:26:00.532Z,8.90
2019-03-12T15:28:36.255Z,9.10
2019-03-12T15:31:18.408Z,9.30
2019-03-12T15:33:52.869Z,9.40
2019-03-12T15:36:27.917Z,9.40
2019-03-12T15:39:01.950Z,9.60
2019-03-12T15:41:39.084Z,9.70
2019-03-12T15:44:14.002Z,9.70
2019-03-12T15:46:52.425Z,9.70
2019-03-12T15:49:26.887Z,9.70
2019-03-12T15:52:03.823Z,9.70
2019-03-12T15:54:41.031Z,9.70
2019-03-12T15:57:15.147Z,9.70
2019-03-12T15:59:49.848Z,9.90
2019-03-12T16:02:26.809Z,9.90
2019-03-12T16:05:01.057Z,9.90
2019-03-12T16:07:43.734Z,9.90
2019-03-12T16:10:19.686Z,9.90
2019-03-12T16:12:54.634Z,9.80
2019-03-12T16:15:29.426Z,9.80
2019-03-12T16:18:04.407Z,9.90
2019-03-12T16:20:39.183Z,10.00
2019-03-12T16:23:13.923Z,9.90
2019-03-12T16:25:50.416Z,9.90
2019-03-12T16:28:26.154Z,9.90
2019-03-12T16:31:01.555Z,9.90
2019-03-12T16:33:39.732Z,10.00
2019-03-12T16:36:13.785Z,10.00
2019-03-12T16:38:48.826Z,9.90
2019-03-12T16:41:22.794Z,9.70
2019-03-12T16:43:57.044Z,9.80
2019-03-12T16:46:31.517Z,9.90
2019-03-12T16:49:07.185Z,9.80
2019-03-12T16:51:41.148Z,9.80
2019-03-12T16:54:15.833Z,9.90
2019-03-12T16:56:50.195Z,9.80
2019-03-12T16:59:25.516Z,9.70
2019-03-12T17:02:05.727Z,9.80
2019-03-12T17:04:43.020Z,9.70
2019-03-12T17:07:25.962Z,9.60
2019-03-12T17:10:05.746Z,9.50
2019-03-12T17:12:41.142Z,9.50
2019-03-12T17:15:16.726Z,9.50
2019-03-12T17:17:59.300Z,9.50
2019-03-12T17:20:33.999Z,9.50
2019-03-12T17:23:25.731Z,9.50
2019-03-12T17:26:02.176Z,9.50
2019-03-12T17:28:36.521Z,9.50
2019-03-12T17:31:10.814Z,9.40
2019-03-12T17:33:45.459Z,9.30
2019-03-12T17:36:20.509Z,9.20
2019-03-12T17:38:55.412Z,9.10
2019-03-12T17:41:33.619Z,9.20
2019-03-12T17:44:08.775Z,9.20
2019-03-12T17:46:42.934Z,9.30
2019-03-12T17:49:16.563Z,9.10
2019-03-12T17:51:52.789Z,9.00
2019-03-12T17:54:32.239Z,9.00
2019-03-12T17:57:07.667Z,9.00
2019-03-12T17:59:43.994Z,9.10
2019-03-12T18:02:19.713Z,9.10
2019-03-12T18:04:54.895Z,9.10
2019-03-12T18:07:29.072Z,9.10
2019-03-12T18:10:05.407Z,9.20
2019-03-12T18:12:43.653Z,9.20
2019-03-12T18:15:19.832Z,9.10
2019-03-12T18:17:55.794Z,9.10
2019-03-12T18:20:29.870Z,8.90
2019-03-12T18:23:07.075Z,8.90
2019-03-12T18:25:42.440Z,8.90
2019-03-12T18:28:18.024Z,8.80
2019-03-12T18:30:52.911Z,8.80
2019-03-12T18:33:26.332Z,8.90
2019-03-12T18:36:00.708Z,9.00
2019-03-12T18:38:35.462Z,9.00
2019-03-12T18:41:12.727Z,9.10
2019-03-12T18:43:47.669Z,9.20
2019-03-12T18:46:22.571Z,9.20
2019-03-12T18:48:56.845Z,9.10
2019-03-12T18:51:53.252Z,9.10
2019-03-12T18:54:19.515Z,9.00
2019-03-12T18:56:55.951Z,8.90
2019-03-12T18:59:31.878Z,8.70
2019-03-12T19:02:05.786Z,8.70
2019-03-12T19:04:42.689Z,8.60
2019-03-12T19:07:18.374Z,8.60
2019-03-12T19:09:56.375Z,8.40
2019-03-12T19:12:30.278Z,8.40
2019-03-12T19:15:05.274Z,8.30
2019-03-12T19:17:39.710Z,8.30
2019-03-12T19:20:15.479Z,8.30
2019-03-12T19:22:49.076Z,8.20
2019-03-12T19:25:23.520Z,8.30
2019-03-12T19:28:01.100Z,8.40
2019-03-12T19:30:36.172Z,8.30
2019-03-12T19:33:20.439Z,8.20
2019-03-12T19:35:56.155Z,8.10
2019-03-12T19:38:30.279Z,8.20
2019-03-12T19:41:04.587Z,8.20
2019-03-12T19:43:38.432Z,8.20
2019-03-12T19:46:13.478Z,8.10
2019-03-12T19:48:47.111Z,8.20
2019-03-12T19:51:22.261Z,8.20
2019-03-12T19:53:56.146Z,8.30
2019-03-12T19:56:31.295Z,8.30
2019-03-12T19:59:05.898Z,8.30
2019-03-12T20:01:47.090Z,8.20
2019-03-12T20:04:21.632Z,8.20
2019-03-12T20:06:55.842Z,8.30
2019-03-12T20:09:45.627Z,8.20
2019-03-12T20:13:05.515Z,8.20
2019-03-12T20:16:14.078Z,8.20
2019-03-12T20:19:31.960Z,8.20
2019-03-12T20:22:49.511Z,8.10
2019-03-12T20:25:58.426Z,8.00
2019-03-12T20:29:33.703Z,8.10
2019-03-12T20:33:10.085Z,8.10
2019-03-12T20:36:18.336Z,8.00
2019-03-12T20:39:26.126Z,7.90
2019-03-12T20:42:34.134Z,8.00
2019-03-12T20:45:55.600Z,8.10
2019-03-12T20:49:32.016Z,7.90
2019-03-12T20:52:59.250Z,7.80
2019-03-12T20:56:41.955Z,7.70
2019-03-12T20:59:54.946Z,7.60
2019-03-12T21:03:07.818Z,7.60
2019-03-12T21:06:22.194Z,7.60
2019-03-12T21:09:35.174Z,7.60
2019-03-12T21:12:46.183Z,7.60
2019-03-12T21:15:59.042Z,7.60
2019-03-12T21:19:30.494Z,7.60
2019-03-12T21:22:45.221Z,7.60
2019-03-12T21:25:46.199Z,7.60
2019-03-12T21:29:06.295Z,7.40
2019-03-12T21:31:41.023Z,7.30
2019-03-12T21:34:15.014Z,7.40
2019-03-12T21:36:48.901Z,7.40
2019-03-12T21:39:24.299Z,7.40
2019-03-12T21:41:58.203Z,7.50
2019-03-12T21:44:31.993Z,7.40
2019-03-12T21:47:06.070Z,7.40
2019-03-12T21:49:39.929Z,7.30
2019-03-12T21:52:14.936Z,7.30
2019-03-12T21:54:49.335Z,7.30
2019-03-12T21:57:24.197Z,7.20
2019-03-12T21:59:59.155Z,7.20
2019-03-12T22:02:33.595Z,7.00
2019-03-12T22:05:07.854Z,7.10
2019-03-12T22:07:41.942Z,7.00
2019-03-12T22:10:15.520Z,7.20
2019-03-12T22:12:49.510Z,7.30
2019-03-12T22:15:23.544Z,7.20
2019-03-12T22:17:57.919Z,7.20
2019-03-12T22:20:32.171Z,7.30
2019-03-12T22:23:11.710Z,7.30
2019-03-12T22:25:45.316Z,7.20
2019-03-12T22:28:19.743Z,7.20
2019-03-12T22:30:56.191Z,7.20
2019-03-12T22:33:30.236Z,7.20
2019-03-12T22:36:03.698Z,7.20
2019-03-12T22:38:37.500Z,7.00
2019-03-12T22:41:11.012Z,6.90
2019-03-12T22:43:47.508Z,7.00
2019-03-12T22:46:21.422Z,6.90
2019-03-12T22:48:55.420Z,6.80
2019-03-12T22:51:28.988Z,6.90
2019-03-12T22:54:02.859Z,6.80
2019-03-12T22:56:37.063Z,6.80
2019-03-12T22:59:12.402Z,7.00
2019-03-12T23:02:04.244Z,7.00
2019-03-12T23:04:55.846Z,6.90
2019-03-12T23:07:46.875Z,6.90
2019-03-12T23:10:22.811Z,6.90
2019-03-12T23:12:59.199Z,6.90
2019-03-12T23:15:34.710Z,6.80
2019-03-12T23:18:09.181Z,6.70
2019-03-12T23:20:43.292Z,6.70
2019-03-12T23:23:17.055Z,6.70
2019-03-12T23:25:51.067Z,6.70
2019-03-12T23:28:24.880Z,6.60
2019-03-12T23:30:59.884Z,6.60
2019-03-12T23:33:34.264Z,6.60
2019-03-12T23:36:08.139Z,6.60
2019-03-12T23:38:41.796Z,6.70
2019-03-12T23:41:16.385Z,6.70
2019-03-12T23:43:51.165Z,6.80
2019-03-12T23:46:25.330Z,6.90
2019-03-12T23:48:59.043Z,6.90
2019-03-12T23:51:33.148Z,6.80
2019-03-12T23:54:06.756Z,6.60
2019-03-12T23:56:40.723Z,6.60
2019-03-12T23:59:15.835Z,6.60
